sensor_id;sensor_type;location;lat;lon;timestamp;P1;durP1;ratioP1;P2;durP2;ratioP2
15443;SDS011;7822;48.146;11.576;2022-10-13T00:01:42;15.93;;;12.03;;
15443;SDS011;7822;48.146;11.576;2022-10-13T00:04:11;17.93;;;12.90;;
15443;SDS011;7822;48.146;11.576;2022-10-13T00:06:39;16.53;;;12.60;;
15443;SDS011;7822;48.146;11.576;2022-10-13T00:09:07;16.23;;;12.30;;
15443;SDS011;7822;48.146;11.576;2022-10-13T00:11:34;17.50;;;12.70;;
15443;SDS011;7822;48.146;11.576;2022-10-13T00:14:03;14.70;;;12.57;;
15443;SDS011;7822;48.146;11.576;2022-10-13T00:16:31;18.80;;;13.23;;
15443;SDS011;7822;48.146;11.576;2022-10-13T00:18:59;18.73;;;14.13;;
15443;SDS011;7822;48.146;11.576;2022-10-13T00:21:29;16.60;;;13.67;;
15443;SDS011;7822;48.146;11.576;2022-10-13T00:23:56;16.80;;;12.73;;
15443;SDS011;7822;48.146;11.576;2022-10-13T00:26:24;17.03;;;14.17;;
15443;SDS011;7822;48.146;11.576;2022-10-13T00:28:53;16.70;;;13.77;;
15443;SDS011;7822;48.146;11.576;2022-10-13T00:31:22;15.93;;;12.23;;
15443;SDS011;7822;48.146;11.576;2022-10-13T00:33:52;16.27;;;13.30;;
15443;SDS011;7822;48.146;11.576;2022-10-13T00:36:21;14.90;;;12.27;;
15443;SDS011;7822;48.146;11.576;2022-10-13T00:38:50;15.70;;;12.37;;
15443;SDS011;7822;48.146;11.576;2022-10-13T00:41:19;16.33;;;12.30;;
15443;SDS011;7822;48.146;11.576;2022-10-13T00:43:49;18.13;;;12.30;;
15443;SDS011;7822;48.146;11.576;2022-10-13T00:46:19;15.50;;;12.17;;
15443;SDS011;7822;48.146;11.576;2022-10-13T00:48:47;15.97;;;12.20;;
15443;SDS011;7822;48.146;11.576;2022-10-13T00:51:17;12.70;;;11.37;;
15443;SDS011;7822;48.146;11.576;2022-10-13T00:53:48;16.80;;;11.83;;
15443;SDS011;7822;48.146;11.576;2022-10-13T00:56:19;14.03;;;10.43;;
15443;SDS011;7822;48.146;11.576;2022-10-13T00:58:48;13.20;;;10.53;;
15443;SDS011;7822;48.146;11.576;2022-10-13T01:01:17;15.40;;;11.23;;
15443;SDS011;7822;48.146;11.576;2022-10-13T01:03:45;14.77;;;11.67;;
15443;SDS011;7822;48.146;11.576;2022-10-13T01:06:13;12.60;;;9.90;;
15443;SDS011;7822;48.146;11.576;2022-10-13T01:08:48;13.57;;;10.93;;
15443;SDS011;7822;48.146;11.576;2022-10-13T01:14:17;12.43;;;10.60;;
15443;SDS011;7822;48.146;11.576;2022-10-13T01:16:53;11.50;;;10.07;;
15443;SDS011;7822;48.146;11.576;2022-10-13T01:22:36;14.37;;;10.00;;
15443;SDS011;7822;48.146;11.576;2022-10-13T01:25:17;13.07;;;9.93;;
15443;SDS011;7822;48.146;11.576;2022-10-13T01:28:06;12.47;;;9.87;;
15443;SDS011;7822;48.146;11.576;2022-10-13T01:30:48;13.50;;;9.37;;
15443;SDS011;7822;48.146;11.576;2022-10-13T01:33:25;10.57;;;9.27;;
15443;SDS011;7822;48.146;11.576;2022-10-13T01:36:05;10.97;;;8.43;;
15443;SDS011;7822;48.146;11.576;2022-10-13T01:38:44;11.23;;;8.80;;
15443;SDS011;7822;48.146;11.576;2022-10-13T01:41:20;13.70;;;9.00;;
15443;SDS011;7822;48.146;11.576;2022-10-13T01:43:53;8.40;;;7.47;;
15443;SDS011;7822;48.146;11.576;2022-10-13T01:46:25;11.53;;;7.97;;
15443;SDS011;7822;48.146;11.576;2022-10-13T01:48:57;11.40;;;8.07;;
15443;SDS011;7822;48.146;11.576;2022-10-13T01:51:28;9.13;;;7.57;;
15443;SDS011;7822;48.146;11.576;2022-10-13T01:53:58;9.30;;;7.33;;
15443;SDS011;7822;48.146;11.576;2022-10-13T01:56:25;10.07;;;7.40;;
15443;SDS011;7822;48.146;11.576;2022-10-13T01:58:53;7.47;;;6.63;;
15443;SDS011;7822;48.146;11.576;2022-10-13T02:01:29;8.37;;;7.40;;
15443;SDS011;7822;48.146;11.576;2022-10-13T02:04:08;9.60;;;7.70;;
15443;SDS011;7822;48.146;11.576;2022-10-13T02:06:46;9.10;;;7.20;;
15443;SDS011;7822;48.146;11.576;2022-10-13T02:09:20;9.50;;;7.93;;
15443;SDS011;7822;48.146;11.576;2022-10-13T02:11:54;9.43;;;7.83;;
15443;SDS011;7822;48.146;11.576;2022-10-13T02:14:25;9.53;;;7.60;;
15443;SDS011;7822;48.146;11.576;2022-10-13T02:16:59;10.33;;;8.03;;
15443;SDS011;7822;48.146;11.576;2022-10-13T02:19:28;10.13;;;8.63;;
15443;SDS011;7822;48.146;11.576;2022-10-13T02:21:59;12.37;;;8.90;;
15443;SDS011;7822;48.146;11.576;2022-10-13T02:24:27;12.30;;;9.10;;
15443;SDS011;7822;48.146;11.576;2022-10-13T02:26:55;13.37;;;9.80;;
15443;SDS011;7822;48.146;11.576;2022-10-13T02:29:23;12.87;;;10.20;;
15443;SDS011;7822;48.146;11.576;2022-10-13T02:31:50;13.33;;;9.30;;
15443;SDS011;7822;48.146;11.576;2022-10-13T02:34:21;11.73;;;9.33;;
15443;SDS011;7822;48.146;11.576;2022-10-13T02:36:48;11.87;;;9.97;;
15443;SDS011;7822;48.146;11.576;2022-10-13T02:39:16;12.03;;;9.33;;
15443;SDS011;7822;48.146;11.576;2022-10-13T02:41:44;10.90;;;9.77;;
15443;SDS011;7822;48.146;11.576;2022-10-13T02:44:11;11.73;;;9.23;;
15443;SDS011;7822;48.146;11.576;2022-10-13T02:46:39;10.80;;;9.70;;
15443;SDS011;7822;48.146;11.576;2022-10-13T02:49:08;10.97;;;9.00;;
15443;SDS011;7822;48.146;11.576;2022-10-13T02:51:37;11.10;;;8.83;;
15443;SDS011;7822;48.146;11.576;2022-10-13T02:54:05;13.23;;;8.87;;
15443;SDS011;7822;48.146;11.576;2022-10-13T02:56:33;11.87;;;9.57;;
15443;SDS011;7822;48.146;11.576;2022-10-13T02:59:01;10.47;;;8.93;;
15443;SDS011;7822;48.146;11.576;2022-10-13T03:01:29;12.60;;;9.63;;
15443;SDS011;7822;48.146;11.576;2022-10-13T03:03:56;12.57;;;9.00;;
15443;SDS011;7822;48.146;11.576;2022-10-13T03:06:24;10.17;;;8.73;;
15443;SDS011;7822;48.146;11.576;2022-10-13T03:08:53;10.17;;;8.40;;
15443;SDS011;7822;48.146;11.576;2022-10-13T03:11:20;12.23;;;7.83;;
15443;SDS011;7822;48.146;11.576;2022-10-13T03:13:48;9.07;;;7.53;;
15443;SDS011;7822;48.146;11.576;2022-10-13T03:16:15;11.17;;;7.80;;
15443;SDS011;7822;48.146;11.576;2022-10-13T03:18:43;9.70;;;8.33;;
15443;SDS011;7822;48.146;11.576;2022-10-13T03:21:11;8.43;;;7.57;;
15443;SDS011;7822;48.146;11.576;2022-10-13T03:23:38;9.27;;;7.67;;
15443;SDS011;7822;48.146;11.576;2022-10-13T03:26:07;8.73;;;7.60;;
15443;SDS011;7822;48.146;11.576;2022-10-13T03:28:35;7.53;;;6.53;;
15443;SDS011;7822;48.146;11.576;2022-10-13T03:31:03;7.47;;;6.67;;
15443;SDS011;7822;48.146;11.576;2022-10-13T03:33:32;7.87;;;6.40;;
15443;SDS011;7822;48.146;11.576;2022-10-13T03:36:01;8.43;;;6.83;;
15443;SDS011;7822;48.146;11.576;2022-10-13T03:38:31;7.20;;;6.20;;
15443;SDS011;7822;48.146;11.576;2022-10-13T03:41:04;6.40;;;5.80;;
15443;SDS011;7822;48.146;11.576;2022-10-13T03:43:34;6.87;;;6.03;;
15443;SDS011;7822;48.146;11.576;2022-10-13T03:46:02;6.97;;;6.27;;
15443;SDS011;7822;48.146;11.576;2022-10-13T03:48:33;7.57;;;6.40;;
15443;SDS011;7822;48.146;11.576;2022-10-13T03:51:03;7.87;;;6.90;;
15443;SDS011;7822;48.146;11.576;2022-10-13T03:53:31;8.03;;;6.23;;
15443;SDS011;7822;48.146;11.576;2022-10-13T03:55:59;7.53;;;6.10;;
15443;SDS011;7822;48.146;11.576;2022-10-13T03:58:27;8.03;;;5.97;;
15443;SDS011;7822;48.146;11.576;2022-10-13T04:00:57;10.13;;;6.90;;
15443;SDS011;7822;48.146;11.576;2022-10-13T04:03:30;10.23;;;7.03;;
15443;SDS011;7822;48.146;11.576;2022-10-13T04:05:58;8.43;;;6.43;;
15443;SDS011;7822;48.146;11.576;2022-10-13T04:08:26;8.67;;;6.53;;
15443;SDS011;7822;48.146;11.576;2022-10-13T04:10:57;8.20;;;6.90;;
15443;SDS011;7822;48.146;11.576;2022-10-13T04:13:25;9.20;;;6.93;;
15443;SDS011;7822;48.146;11.576;2022-10-13T04:15:53;8.63;;;7.07;;
15443;SDS011;7822;48.146;11.576;2022-10-13T04:18:22;8.77;;;6.80;;
15443;SDS011;7822;48.146;11.576;2022-10-13T04:20:50;8.27;;;6.97;;
15443;SDS011;7822;48.146;11.576;2022-10-13T04:23:17;8.97;;;7.63;;
15443;SDS011;7822;48.146;11.576;2022-10-13T04:25:45;8.97;;;7.10;;
15443;SDS011;7822;48.146;11.576;2022-10-13T04:28:12;8.43;;;7.07;;
15443;SDS011;7822;48.146;11.576;2022-10-13T04:30:40;8.63;;;7.20;;
15443;SDS011;7822;48.146;11.576;2022-10-13T04:33:14;8.67;;;6.27;;
15443;SDS011;7822;48.146;11.576;2022-10-13T04:35:43;8.03;;;6.60;;
15443;SDS011;7822;48.146;11.576;2022-10-13T04:38:11;10.37;;;6.90;;
15443;SDS011;7822;48.146;11.576;2022-10-13T04:40:39;7.97;;;6.67;;
15443;SDS011;7822;48.146;11.576;2022-10-13T04:43:07;8.43;;;6.07;;
15443;SDS011;7822;48.146;11.576;2022-10-13T04:45:37;6.30;;;5.63;;
15443;SDS011;7822;48.146;11.576;2022-10-13T04:48:05;8.53;;;7.13;;
15443;SDS011;7822;48.146;11.576;2022-10-13T04:50:33;8.40;;;6.87;;
15443;SDS011;7822;48.146;11.576;2022-10-13T04:53:02;7.90;;;6.70;;
15443;SDS011;7822;48.146;11.576;2022-10-13T04:55:33;8.57;;;6.53;;
15443;SDS011;7822;48.146;11.576;2022-10-13T04:58:02;9.70;;;6.57;;
15443;SDS011;7822;48.146;11.576;2022-10-13T05:00:30;8.23;;;7.00;;
15443;SDS011;7822;48.146;11.576;2022-10-13T05:02:58;10.03;;;7.80;;
15443;SDS011;7822;48.146;11.576;2022-10-13T05:05:25;8.90;;;7.10;;
15443;SDS011;7822;48.146;11.576;2022-10-13T05:07:53;10.67;;;7.33;;
15443;SDS011;7822;48.146;11.576;2022-10-13T05:10:22;8.83;;;7.47;;
15443;SDS011;7822;48.146;11.576;2022-10-13T05:12:50;8.07;;;7.23;;
15443;SDS011;7822;48.146;11.576;2022-10-13T05:15:19;8.87;;;7.30;;
15443;SDS011;7822;48.146;11.576;2022-10-13T05:17:47;9.20;;;8.00;;
15443;SDS011;7822;48.146;11.576;2022-10-13T05:20:15;13.47;;;8.73;;
15443;SDS011;7822;48.146;11.576;2022-10-13T05:22:43;12.43;;;9.03;;
15443;SDS011;7822;48.146;11.576;2022-10-13T05:25:10;11.30;;;7.97;;
15443;SDS011;7822;48.146;11.576;2022-10-13T05:27:39;8.67;;;7.43;;
15443;SDS011;7822;48.146;11.576;2022-10-13T05:30:07;9.33;;;8.40;;
15443;SDS011;7822;48.146;11.576;2022-10-13T05:32:36;9.43;;;7.40;;
15443;SDS011;7822;48.146;11.576;2022-10-13T05:35:04;11.17;;;7.73;;
15443;SDS011;7822;48.146;11.576;2022-10-13T05:37:32;9.17;;;8.27;;
15443;SDS011;7822;48.146;11.576;2022-10-13T05:39:59;11.20;;;8.30;;
15443;SDS011;7822;48.146;11.576;2022-10-13T05:42:27;10.47;;;8.40;;
15443;SDS011;7822;48.146;11.576;2022-10-13T05:44:57;10.50;;;8.53;;
15443;SDS011;7822;48.146;11.576;2022-10-13T05:47:25;11.33;;;8.40;;
15443;SDS011;7822;48.146;11.576;2022-10-13T05:49:53;11.77;;;8.70;;
15443;SDS011;7822;48.146;11.576;2022-10-13T05:52:21;10.27;;;8.30;;
15443;SDS011;7822;48.146;11.576;2022-10-13T05:54:51;9.27;;;8.33;;
15443;SDS011;7822;48.146;11.576;2022-10-13T05:57:23;11.90;;;7.80;;
15443;SDS011;7822;48.146;11.576;2022-10-13T05:59:55;11.67;;;8.23;;
15443;SDS011;7822;48.146;11.576;2022-10-13T06:02:29;9.23;;;7.30;;
15443;SDS011;7822;48.146;11.576;2022-10-13T06:05:00;9.97;;;8.10;;
15443;SDS011;7822;48.146;11.576;2022-10-13T06:07:30;10.73;;;8.53;;
15443;SDS011;7822;48.146;11.576;2022-10-13T06:09:59;12.00;;;8.10;;
15443;SDS011;7822;48.146;11.576;2022-10-13T06:12:27;12.53;;;7.93;;
15443;SDS011;7822;48.146;11.576;2022-10-13T06:14:55;14.27;;;8.60;;
15443;SDS011;7822;48.146;11.576;2022-10-13T06:17:24;10.13;;;7.93;;
15443;SDS011;7822;48.146;11.576;2022-10-13T06:19:51;10.47;;;8.03;;
15443;SDS011;7822;48.146;11.576;2022-10-13T06:22:19;12.40;;;8.67;;
15443;SDS011;7822;48.146;11.576;2022-10-13T06:24:48;12.93;;;8.50;;
15443;SDS011;7822;48.146;11.576;2022-10-13T06:27:15;11.30;;;7.83;;
15443;SDS011;7822;48.146;11.576;2022-10-13T06:29:43;12.10;;;8.70;;
15443;SDS011;7822;48.146;11.576;2022-10-13T06:32:10;10.20;;;8.20;;
15443;SDS011;7822;48.146;11.576;2022-10-13T06:34:39;10.77;;;8.40;;
15443;SDS011;7822;48.146;11.576;2022-10-13T06:37:07;11.40;;;8.37;;
15443;SDS011;7822;48.146;11.576;2022-10-13T06:39:35;10.33;;;8.87;;
15443;SDS011;7822;48.146;11.576;2022-10-13T06:42:03;10.53;;;8.07;;
15443;SDS011;7822;48.146;11.576;2022-10-13T06:44:31;11.37;;;8.90;;
15443;SDS011;7822;48.146;11.576;2022-10-13T06:46:58;11.10;;;8.37;;
15443;SDS011;7822;48.146;11.576;2022-10-13T06:49:28;12.13;;;8.67;;
15443;SDS011;7822;48.146;11.576;2022-10-13T06:51:57;10.67;;;8.50;;
15443;SDS011;7822;48.146;11.576;2022-10-13T06:54:25;11.30;;;8.57;;
15443;SDS011;7822;48.146;11.576;2022-10-13T06:56:52;13.37;;;9.70;;
15443;SDS011;7822;48.146;11.576;2022-10-13T06:59:20;12.97;;;8.87;;
15443;SDS011;7822;48.146;11.576;2022-10-13T07:01:47;11.93;;;9.63;;
15443;SDS011;7822;48.146;11.576;2022-10-13T07:04:16;15.33;;;9.70;;
15443;SDS011;7822;48.146;11.576;2022-10-13T07:06:44;13.83;;;9.83;;
15443;SDS011;7822;48.146;11.576;2022-10-13T07:09:13;12.53;;;9.10;;
15443;SDS011;7822;48.146;11.576;2022-10-13T07:11:42;13.40;;;9.63;;
15443;SDS011;7822;48.146;11.576;2022-10-13T07:14:10;14.87;;;9.73;;
15443;SDS011;7822;48.146;11.576;2022-10-13T07:16:38;14.07;;;10.77;;
15443;SDS011;7822;48.146;11.576;2022-10-13T07:19:06;14.23;;;9.83;;
15443;SDS011;7822;48.146;11.576;2022-10-13T07:21:33;12.90;;;9.03;;
15443;SDS011;7822;48.146;11.576;2022-10-13T07:24:01;11.20;;;8.50;;
15443;SDS011;7822;48.146;11.576;2022-10-13T07:26:31;12.83;;;9.60;;
15443;SDS011;7822;48.146;11.576;2022-10-13T07:28:59;11.63;;;9.10;;
15443;SDS011;7822;48.146;11.576;2022-10-13T07:31:27;15.20;;;10.43;;
15443;SDS011;7822;48.146;11.576;2022-10-13T07:33:54;14.90;;;9.77;;
15443;SDS011;7822;48.146;11.576;2022-10-13T07:36:25;12.83;;;9.83;;
15443;SDS011;7822;48.146;11.576;2022-10-13T07:38:53;13.17;;;10.50;;
15443;SDS011;7822;48.146;11.576;2022-10-13T07:41:21;15.60;;;9.33;;
15443;SDS011;7822;48.146;11.576;2022-10-13T07:43:54;12.57;;;10.37;;
15443;SDS011;7822;48.146;11.576;2022-10-13T07:46:21;13.20;;;10.77;;
15443;SDS011;7822;48.146;11.576;2022-10-13T07:48:50;14.40;;;10.27;;
15443;SDS011;7822;48.146;11.576;2022-10-13T07:51:18;14.33;;;10.30;;
15443;SDS011;7822;48.146;11.576;2022-10-13T07:53:47;19.03;;;11.77;;
15443;SDS011;7822;48.146;11.576;2022-10-13T07:56:15;15.67;;;10.97;;
15443;SDS011;7822;48.146;11.576;2022-10-13T07:58:43;14.30;;;10.40;;
15443;SDS011;7822;48.146;11.576;2022-10-13T08:01:14;14.63;;;10.20;;
15443;SDS011;7822;48.146;11.576;2022-10-13T08:03:43;14.93;;;10.30;;
15443;SDS011;7822;48.146;11.576;2022-10-13T08:06:16;14.17;;;10.73;;
15443;SDS011;7822;48.146;11.576;2022-10-13T08:08:43;17.37;;;9.97;;
15443;SDS011;7822;48.146;11.576;2022-10-13T08:11:12;12.93;;;10.77;;
15443;SDS011;7822;48.146;11.576;2022-10-13T08:13:45;15.13;;;10.93;;
15443;SDS011;7822;48.146;11.576;2022-10-13T08:16:15;17.40;;;10.70;;
15443;SDS011;7822;48.146;11.576;2022-10-13T08:18:43;15.83;;;10.60;;
15443;SDS011;7822;48.146;11.576;2022-10-13T08:21:12;12.03;;;10.37;;
15443;SDS011;7822;48.146;11.576;2022-10-13T08:24:02;16.23;;;11.00;;
15443;SDS011;7822;48.146;11.576;2022-10-13T08:26:30;15.93;;;10.00;;
15443;SDS011;7822;48.146;11.576;2022-10-13T08:28:58;12.97;;;10.27;;
15443;SDS011;7822;48.146;11.576;2022-10-13T08:31:47;16.20;;;10.50;;
15443;SDS011;7822;48.146;11.576;2022-10-13T08:34:20;13.80;;;10.03;;
15443;SDS011;7822;48.146;11.576;2022-10-13T08:36:48;13.17;;;10.27;;
15443;SDS011;7822;48.146;11.576;2022-10-13T08:39:18;16.27;;;11.67;;
15443;SDS011;7822;48.146;11.576;2022-10-13T08:41:46;14.97;;;10.80;;
15443;SDS011;7822;48.146;11.576;2022-10-13T08:44:17;13.40;;;10.60;;
15443;SDS011;7822;48.146;11.576;2022-10-13T08:47:11;16.67;;;11.17;;
15443;SDS011;7822;48.146;11.576;2022-10-13T08:49:44;18.60;;;10.90;;
15443;SDS011;7822;48.146;11.576;2022-10-13T08:52:15;13.37;;;10.17;;
15443;SDS011;7822;48.146;11.576;2022-10-13T08:54:46;16.20;;;11.10;;
15443;SDS011;7822;48.146;11.576;2022-10-13T08:57:15;16.47;;;10.13;;
15443;SDS011;7822;48.146;11.576;2022-10-13T08:59:44;14.40;;;10.30;;
15443;SDS011;7822;48.146;11.576;2022-10-13T09:02:15;15.43;;;11.37;;
15443;SDS011;7822;48.146;11.576;2022-10-13T09:04:50;17.07;;;10.77;;
15443;SDS011;7822;48.146;11.576;2022-10-13T09:07:20;14.77;;;9.37;;
15443;SDS011;7822;48.146;11.576;2022-10-13T09:09:52;14.33;;;10.23;;
15443;SDS011;7822;48.146;11.576;2022-10-13T09:12:21;15.90;;;10.20;;
15443;SDS011;7822;48.146;11.576;2022-10-13T09:14:56;12.90;;;9.83;;
15443;SDS011;7822;48.146;11.576;2022-10-13T09:17:28;14.60;;;10.70;;
15443;SDS011;7822;48.146;11.576;2022-10-13T09:19:57;15.30;;;9.70;;
15443;SDS011;7822;48.146;11.576;2022-10-13T09:22:29;12.63;;;8.97;;
15443;SDS011;7822;48.146;11.576;2022-10-13T09:27:51;16.40;;;8.53;;
15443;SDS011;7822;48.146;11.576;2022-10-13T09:30:25;15.10;;;9.37;;
15443;SDS011;7822;48.146;11.576;2022-10-13T09:33:03;12.30;;;8.63;;
15443;SDS011;7822;48.146;11.576;2022-10-13T09:35:40;12.40;;;8.90;;
15443;SDS011;7822;48.146;11.576;2022-10-13T09:38:10;11.93;;;9.23;;
15443;SDS011;7822;48.146;11.576;2022-10-13T09:40:41;12.37;;;8.10;;
15443;SDS011;7822;48.146;11.576;2022-10-13T09:43:24;13.37;;;7.97;;
15443;SDS011;7822;48.146;11.576;2022-10-13T09:45:55;11.83;;;8.27;;
15443;SDS011;7822;48.146;11.576;2022-10-13T09:48:26;10.93;;;7.40;;
15443;SDS011;7822;48.146;11.576;2022-10-13T09:50:56;10.80;;;7.17;;
15443;SDS011;7822;48.146;11.576;2022-10-13T09:53:27;9.33;;;7.40;;
15443;SDS011;7822;48.146;11.576;2022-10-13T09:56:08;8.10;;;6.30;;
15443;SDS011;7822;48.146;11.576;2022-10-13T09:58:44;10.20;;;7.53;;
15443;SDS011;7822;48.146;11.576;2022-10-13T10:01:18;9.07;;;6.47;;
15443;SDS011;7822;48.146;11.576;2022-10-13T10:03:51;9.93;;;7.03;;
15443;SDS011;7822;48.146;11.576;2022-10-13T10:06:21;11.03;;;7.20;;
15443;SDS011;7822;48.146;11.576;2022-10-13T10:08:54;11.33;;;6.87;;
15443;SDS011;7822;48.146;11.576;2022-10-13T10:11:30;11.73;;;8.17;;
15443;SDS011;7822;48.146;11.576;2022-10-13T10:14:03;10.20;;;6.93;;
15443;SDS011;7822;48.146;11.576;2022-10-13T10:16:43;11.83;;;7.30;;
15443;SDS011;7822;48.146;11.576;2022-10-13T10:19:19;10.50;;;7.17;;
15443;SDS011;7822;48.146;11.576;2022-10-13T10:21:52;7.87;;;6.90;;
15443;SDS011;7822;48.146;11.576;2022-10-13T10:24:30;9.17;;;6.90;;
15443;SDS011;7822;48.146;11.576;2022-10-13T10:27:04;10.13;;;7.07;;
15443;SDS011;7822;48.146;11.576;2022-10-13T10:29:39;9.13;;;6.67;;
15443;SDS011;7822;48.146;11.576;2022-10-13T10:32:19;11.33;;;6.77;;
15443;SDS011;7822;48.146;11.576;2022-10-13T10:34:56;9.17;;;7.40;;
15443;SDS011;7822;48.146;11.576;2022-10-13T10:37:32;10.77;;;7.03;;
15443;SDS011;7822;48.146;11.576;2022-10-13T10:40:13;8.97;;;6.70;;
15443;SDS011;7822;48.146;11.576;2022-10-13T10:42:59;10.50;;;7.20;;
15443;SDS011;7822;48.146;11.576;2022-10-13T10:45:50;10.93;;;7.27;;
15443;SDS011;7822;48.146;11.576;2022-10-13T10:48:18;9.83;;;6.93;;
15443;SDS011;7822;48.146;11.576;2022-10-13T10:50:50;11.77;;;7.27;;
15443;SDS011;7822;48.146;11.576;2022-10-13T10:53:20;8.73;;;7.17;;
15443;SDS011;7822;48.146;11.576;2022-10-13T10:55:58;11.73;;;7.97;;
15443;SDS011;7822;48.146;11.576;2022-10-13T10:58:33;10.57;;;7.63;;
15443;SDS011;7822;48.146;11.576;2022-10-13T11:01:16;9.43;;;6.80;;
15443;SDS011;7822;48.146;11.576;2022-10-13T11:03:54;9.17;;;6.93;;
15443;SDS011;7822;48.146;11.576;2022-10-13T11:06:32;10.20;;;6.93;;
15443;SDS011;7822;48.146;11.576;2022-10-13T11:09:01;9.27;;;7.60;;
15443;SDS011;7822;48.146;11.576;2022-10-13T11:11:37;12.77;;;7.63;;
15443;SDS011;7822;48.146;11.576;2022-10-13T11:14:19;11.70;;;7.67;;
15443;SDS011;7822;48.146;11.576;2022-10-13T11:16:58;11.60;;;7.50;;
15443;SDS011;7822;48.146;11.576;2022-10-13T11:19:30;9.27;;;6.90;;
15443;SDS011;7822;48.146;11.576;2022-10-13T11:24:51;10.53;;;7.43;;
15443;SDS011;7822;48.146;11.576;2022-10-13T11:27:37;8.47;;;6.40;;
15443;SDS011;7822;48.146;11.576;2022-10-13T11:39:56;11.37;;;7.30;;
15443;SDS011;7822;48.146;11.576;2022-10-13T11:43:02;11.63;;;8.03;;
15443;SDS011;7822;48.146;11.576;2022-10-13T11:45:46;11.70;;;7.70;;
15443;SDS011;7822;48.146;11.576;2022-10-13T11:48:35;11.27;;;7.73;;
15443;SDS011;7822;48.146;11.576;2022-10-13T11:51:28;10.67;;;7.33;;
15443;SDS011;7822;48.146;11.576;2022-10-13T11:54:00;12.50;;;7.47;;
15443;SDS011;7822;48.146;11.576;2022-10-13T11:56:44;8.43;;;7.40;;
15443;SDS011;7822;48.146;11.576;2022-10-13T11:59:21;8.60;;;7.80;;
15443;SDS011;7822;48.146;11.576;2022-10-13T12:01:54;10.83;;;7.73;;
15443;SDS011;7822;48.146;11.576;2022-10-13T12:04:24;12.47;;;7.80;;
15443;SDS011;7822;48.146;11.576;2022-10-13T12:06:58;10.77;;;7.53;;
15443;SDS011;7822;48.146;11.576;2022-10-13T12:09:28;11.93;;;7.17;;
15443;SDS011;7822;48.146;11.576;2022-10-13T12:12:00;10.00;;;7.93;;
15443;SDS011;7822;48.146;11.576;2022-10-13T12:14:30;10.97;;;7.37;;
15443;SDS011;7822;48.146;11.576;2022-10-13T12:17:01;10.67;;;7.33;;
15443;SDS011;7822;48.146;11.576;2022-10-13T12:19:29;11.87;;;7.53;;
15443;SDS011;7822;48.146;11.576;2022-10-13T12:21:59;14.27;;;7.70;;
15443;SDS011;7822;48.146;11.576;2022-10-13T12:24:28;11.53;;;7.37;;
15443;SDS011;7822;48.146;11.576;2022-10-13T12:26:57;9.93;;;7.60;;
15443;SDS011;7822;48.146;11.576;2022-10-13T12:29:26;10.20;;;7.97;;
15443;SDS011;7822;48.146;11.576;2022-10-13T12:32:02;8.40;;;6.73;;
15443;SDS011;7822;48.146;11.576;2022-10-13T12:34:49;10.80;;;7.27;;
15443;SDS011;7822;48.146;11.576;2022-10-13T12:37:20;11.50;;;8.37;;
15443;SDS011;7822;48.146;11.576;2022-10-13T12:39:52;10.07;;;7.37;;
15443;SDS011;7822;48.146;11.576;2022-10-13T12:42:23;11.83;;;8.17;;
15443;SDS011;7822;48.146;11.576;2022-10-13T12:44:56;9.10;;;7.40;;
15443;SDS011;7822;48.146;11.576;2022-10-13T12:47:37;8.27;;;6.83;;
15443;SDS011;7822;48.146;11.576;2022-10-13T12:53:08;11.63;;;7.63;;
15443;SDS011;7822;48.146;11.576;2022-10-13T12:55:49;11.47;;;7.07;;
15443;SDS011;7822;48.146;11.576;2022-10-13T12:58:22;10.67;;;6.80;;
15443;SDS011;7822;48.146;11.576;2022-10-13T13:01:05;8.27;;;6.83;;
15443;SDS011;7822;48.146;11.576;2022-10-13T13:03:35;9.37;;;6.70;;
15443;SDS011;7822;48.146;11.576;2022-10-13T13:06:08;8.07;;;6.70;;
15443;SDS011;7822;48.146;11.576;2022-10-13T13:08:38;9.53;;;5.93;;
15443;SDS011;7822;48.146;11.576;2022-10-13T13:11:16;7.30;;;6.53;;
15443;SDS011;7822;48.146;11.576;2022-10-13T13:13:47;9.80;;;6.77;;
15443;SDS011;7822;48.146;11.576;2022-10-13T13:16:17;11.03;;;6.33;;
15443;SDS011;7822;48.146;11.576;2022-10-13T13:18:47;8.73;;;6.50;;
15443;SDS011;7822;48.146;11.576;2022-10-13T13:21:16;10.23;;;6.70;;
15443;SDS011;7822;48.146;11.576;2022-10-13T13:23:46;9.07;;;6.00;;
15443;SDS011;7822;48.146;11.576;2022-10-13T13:26:20;9.33;;;6.43;;
15443;SDS011;7822;48.146;11.576;2022-10-13T13:28:49;11.37;;;6.53;;
15443;SDS011;7822;48.146;11.576;2022-10-13T13:31:20;11.77;;;6.60;;
15443;SDS011;7822;48.146;11.576;2022-10-13T13:33:50;9.03;;;6.57;;
15443;SDS011;7822;48.146;11.576;2022-10-13T13:36:19;9.70;;;7.10;;
15443;SDS011;7822;48.146;11.576;2022-10-13T13:38:47;9.07;;;5.43;;
15443;SDS011;7822;48.146;11.576;2022-10-13T13:41:16;8.87;;;7.10;;
15443;SDS011;7822;48.146;11.576;2022-10-13T13:43:44;7.63;;;5.97;;
15443;SDS011;7822;48.146;11.576;2022-10-13T13:46:13;8.77;;;6.73;;
15443;SDS011;7822;48.146;11.576;2022-10-13T13:48:44;10.83;;;6.83;;
15443;SDS011;7822;48.146;11.576;2022-10-13T13:51:12;9.83;;;6.37;;
15443;SDS011;7822;48.146;11.576;2022-10-13T13:53:39;9.47;;;6.10;;
15443;SDS011;7822;48.146;11.576;2022-10-13T13:56:08;9.60;;;6.33;;
15443;SDS011;7822;48.146;11.576;2022-10-13T13:58:38;10.57;;;6.83;;
15443;SDS011;7822;48.146;11.576;2022-10-13T14:01:06;9.30;;;6.57;;
15443;SDS011;7822;48.146;11.576;2022-10-13T14:03:34;10.53;;;6.97;;
15443;SDS011;7822;48.146;11.576;2022-10-13T14:06:03;7.17;;;5.70;;
15443;SDS011;7822;48.146;11.576;2022-10-13T14:08:31;8.20;;;6.20;;
15443;SDS011;7822;48.146;11.576;2022-10-13T14:11:00;9.57;;;6.23;;
15443;SDS011;7822;48.146;11.576;2022-10-13T14:13:32;8.37;;;5.43;;
15443;SDS011;7822;48.146;11.576;2022-10-13T14:16:00;8.80;;;6.20;;
15443;SDS011;7822;48.146;11.576;2022-10-13T14:18:28;9.93;;;7.00;;
15443;SDS011;7822;48.146;11.576;2022-10-13T14:20:57;9.07;;;6.70;;
15443;SDS011;7822;48.146;11.576;2022-10-13T14:23:26;9.53;;;6.10;;
15443;SDS011;7822;48.146;11.576;2022-10-13T14:25:54;8.20;;;6.07;;
15443;SDS011;7822;48.146;11.576;2022-10-13T14:28:21;10.03;;;5.53;;
15443;SDS011;7822;48.146;11.576;2022-10-13T14:30:49;9.67;;;6.07;;
15443;SDS011;7822;48.146;11.576;2022-10-13T14:33:17;9.80;;;5.63;;
15443;SDS011;7822;48.146;11.576;2022-10-13T14:35:44;11.97;;;6.17;;
15443;SDS011;7822;48.146;11.576;2022-10-13T14:38:12;8.57;;;6.13;;
15443;SDS011;7822;48.146;11.576;2022-10-13T14:40:41;7.90;;;6.40;;
15443;SDS011;7822;48.146;11.576;2022-10-13T14:43:09;8.10;;;5.27;;
15443;SDS011;7822;48.146;11.576;2022-10-13T14:45:36;7.97;;;5.43;;
15443;SDS011;7822;48.146;11.576;2022-10-13T14:48:04;7.33;;;5.60;;
15443;SDS011;7822;48.146;11.576;2022-10-13T14:50:32;7.53;;;6.17;;
15443;SDS011;7822;48.146;11.576;2022-10-13T14:52:59;7.77;;;5.23;;
15443;SDS011;7822;48.146;11.576;2022-10-13T14:55:27;7.40;;;4.57;;
15443;SDS011;7822;48.146;11.576;2022-10-13T14:57:56;7.28;;;4.60;;
15443;SDS011;7822;48.146;11.576;2022-10-13T15:00:24;7.65;;;5.70;;
15443;SDS011;7822;48.146;11.576;2022-10-13T15:02:51;7.70;;;6.68;;
15443;SDS011;7822;48.146;11.576;2022-10-13T15:05:19;7.93;;;5.50;;
15443;SDS011;7822;48.146;11.576;2022-10-13T15:07:47;8.47;;;5.40;;
15443;SDS011;7822;48.146;11.576;2022-10-13T15:10:15;8.25;;;5.05;;
15443;SDS011;7822;48.146;11.576;2022-10-13T15:12:42;6.88;;;5.63;;
15443;SDS011;7822;48.146;11.576;2022-10-13T15:15:11;6.35;;;5.43;;
15443;SDS011;7822;48.146;11.576;2022-10-13T15:17:39;8.00;;;5.70;;
15443;SDS011;7822;48.146;11.576;2022-10-13T15:20:07;7.10;;;5.63;;
15443;SDS011;7822;48.146;11.576;2022-10-13T15:22:35;9.20;;;5.68;;